Time;durP1;ratioP1;P1;durP2;ratioP2;P2;SDS_P1;SDS_P2;PMS_P1;PMS_P2;Temp;Humidity;BMP_temperature;BMP_pressure;BME280_temperature;BME280_humidity;BME280_pressure;Samples;Min_cycle;Max_cycle;Signal;HPM_P1;HPM_P2
2021/09/26 00:00:24;;;;;;;8.03;4.93;;;16.90;99.90;;;;;;490343;242;28830;-76
2021/09/26 00:02:26;;;;;;;5.07;4.47;;;16.90;99.90;;;;;;490355;242;28877;-77
2021/09/26 00:04:26;;;;;;;5.27;4.57;;;17.00;99.90;;;;;;490350;242;28809;-75
2021/09/26 00:06:28;;;;;;;5.37;4.83;;;17.10;99.90;;;;;;490334;242;28842;-76
2021/09/26 00:08:29;;;;;;;4.97;4.47;;;17.10;99.90;;;;;;490345;242;28828;-76
2021/09/26 00:10:30;;;;;;;6.00;5.30;;;17.00;99.90;;;;;;490396;242;28806;-75
2021/09/26 00:12:31;;;;;;;6.37;4.70;;;17.00;99.90;;;;;;490379;242;28875;-76
2021/09/26 00:14:33;;;;;;;6.83;5.47;;;17.00;99.90;;;;;;490401;242;28828;-76
2021/09/26 00:16:34;;;;;;;5.73;5.23;;;17.00;99.90;;;;;;490339;242;28923;-77
2021/09/26 00:18:35;;;;;;;6.03;5.30;;;16.90;99.90;;;;;;490363;242;29489;-76
2021/09/26 00:20:36;;;;;;;5.43;4.80;;;16.80;99.90;;;;;;490389;242;29328;-76
2021/09/26 00:22:38;;;;;;;7.87;6.00;;;16.80;99.90;;;;;;490376;242;29309;-76
2021/09/26 00:24:39;;;;;;;6.90;6.20;;;16.70;99.90;;;;;;490407;241;28807;-76
2021/09/26 00:26:40;;;;;;;7.93;6.07;;;16.60;99.90;;;;;;490378;242;28836;-76
2021/09/26 00:28:42;;;;;;;6.97;5.40;;;16.50;99.90;;;;;;490392;242;28945;-76
2021/09/26 00:30:43;;;;;;;5.80;5.20;;;16.40;99.90;;;;;;490388;242;28823;-76
2021/09/26 00:32:44;;;;;;;6.33;5.60;;;16.30;99.90;;;;;;490357;242;28867;-76
2021/09/26 00:34:46;;;;;;;6.23;5.63;;;16.20;99.90;;;;;;490335;242;28810;-76
2021/09/26 00:36:47;;;;;;;6.50;5.00;;;16.20;99.90;;;;;;490374;242;28848;-76
2021/09/26 00:38:48;;;;;;;6.00;4.80;;;16.10;99.90;;;;;;490332;242;28848;-75
2021/09/26 00:40:49;;;;;;;5.87;5.27;;;16.00;99.90;;;;;;490354;242;28890;-76
2021/09/26 00:42:50;;;;;;;5.70;5.10;;;16.00;99.90;;;;;;490341;242;29302;-75
2021/09/26 00:44:52;;;;;;;5.67;3.93;;;16.00;99.90;;;;;;490325;242;29385;-76
2021/09/26 00:46:53;;;;;;;5.47;4.90;;;15.90;99.90;;;;;;490345;242;29334;-75
2021/09/26 00:48:54;;;;;;;7.10;5.10;;;15.80;99.90;;;;;;490346;242;29308;-75
2021/09/26 00:50:55;;;;;;;5.03;4.57;;;15.80;99.90;;;;;;490341;242;28856;-76
2021/09/26 00:52:57;;;;;;;5.03;4.57;;;15.80;99.90;;;;;;490336;242;28915;-76
2021/09/26 00:54:58;;;;;;;5.97;5.37;;;15.70;99.90;;;;;;490315;242;28912;-76
2021/09/26 00:57:00;;;;;;;5.70;5.20;;;15.70;99.90;;;;;;490391;242;28910;-76
2021/09/26 00:59:02;;;;;;;6.23;5.00;;;;;;;;;;490415;242;26489;-76
2021/09/26 01:01:04;;;;;;;6.80;4.33;;;;;;;;;;481893;246;27458;-76
2021/09/26 01:03:05;;;;;;;5.67;5.00;;;15.60;99.90;;;;;;471189;251;27531;-76
2021/09/26 01:05:07;;;;;;;6.53;5.30;;;;;;;;;;477756;249;28781;-76
2021/09/26 01:07:09;;;;;;;6.07;5.47;;;;;;;;;;482183;246;27545;-76
2021/09/26 01:09:13;;;;;;;4.97;4.57;;;;;;;;;;483200;246;27498;-76
2021/09/26 01:11:14;;;;;;;5.40;4.90;;;15.60;99.90;;;;;;483355;244;26507;-76
2021/09/26 01:13:15;;;;;;;4.60;4.20;;;15.60;99.90;;;;;;483453;243;28975;-76
2021/09/26 01:15:16;;;;;;;5.10;4.37;;;15.60;99.90;;;;;;483470;245;29339;-76
2021/09/26 01:17:18;;;;;;;4.77;4.37;;;15.50;99.90;;;;;;483503;245;28926;-76
2021/09/26 01:19:19;;;;;;;4.80;4.40;;;15.50;99.90;;;;;;483523;245;29376;-76
2021/09/26 01:21:20;;;;;;;6.23;4.90;;;15.50;99.90;;;;;;483416;245;29484;-77
2021/09/26 01:23:21;;;;;;;5.47;4.97;;;15.50;99.90;;;;;;483380;245;28880;-76
2021/09/26 01:25:23;;;;;;;5.10;4.60;;;15.50;99.90;;;;;;483340;245;28886;-76
2021/09/26 01:27:24;;;;;;;5.67;4.70;;;15.50;99.90;;;;;;483288;243;28875;-76
2021/09/26 01:29:28;;;;;;;5.70;5.00;;;15.50;99.90;;;;;;483274;245;28999;-76
2021/09/26 01:31:26;;;;;;;5.30;4.60;;;15.50;99.90;;;;;;483061;246;28837;-77
2021/09/26 01:33:28;;;;;;;8.37;5.93;;;15.60;99.90;;;;;;483423;245;28886;-77
2021/09/26 01:35:29;;;;;;;5.90;5.30;;;15.60;99.90;;;;;;483298;246;28926;-77
2021/09/26 01:37:30;;;;;;;7.80;5.90;;;15.60;99.90;;;;;;483367;245;28853;-77
2021/09/26 01:39:31;;;;;;;5.10;4.60;;;15.60;99.90;;;;;;483545;245;28889;-77
2021/09/26 01:41:33;;;;;;;5.43;4.90;;;15.50;99.90;;;;;;483547;245;30317;-77
2021/09/26 01:43:34;;;;;;;6.20;5.60;;;15.50;99.90;;;;;;483502;245;29446;-77
2021/09/26 01:45:35;;;;;;;5.50;5.00;;;15.50;99.90;;;;;;483554;245;28883;-78
2021/09/26 01:47:36;;;;;;;5.60;5.10;;;15.60;99.90;;;;;;483449;245;28914;-78
2021/09/26 01:49:38;;;;;;;4.87;4.37;;;15.60;99.90;;;;;;483438;245;29466;-77
2021/09/26 01:51:39;;;;;;;4.80;4.40;;;15.50;99.90;;;;;;483380;245;29444;-76
2021/09/26 01:53:40;;;;;;;6.07;5.13;;;15.40;99.90;;;;;;483465;245;29279;-78
2021/09/26 01:55:41;;;;;;;4.63;4.23;;;15.40;99.90;;;;;;483472;245;29408;-77
2021/09/26 01:57:43;;;;;;;5.10;4.60;;;15.40;99.90;;;;;;483480;246;28845;-77
2021/09/26 01:59:44;;;;;;;4.83;4.43;;;15.40;99.90;;;;;;483482;245;28901;-77
2021/09/26 02:01:45;;;;;;;5.53;5.03;;;15.40;99.90;;;;;;483492;246;28871;-77
2021/09/26 02:03:46;;;;;;;5.97;4.90;;;15.30;99.90;;;;;;483431;246;28850;-77
2021/09/26 02:05:48;;;;;;;5.10;4.60;;;15.30;99.90;;;;;;483413;245;28985;-77
2021/09/26 02:07:49;;;;;;;5.73;5.13;;;15.30;99.90;;;;;;483298;245;28848;-78
2021/09/26 02:09:50;;;;;;;5.40;4.90;;;15.20;99.90;;;;;;483387;245;28582;-77
2021/09/26 02:11:51;;;;;;;6.13;5.53;;;15.20;99.90;;;;;;483403;245;28994;-77
2021/09/26 02:13:53;;;;;;;5.33;4.83;;;15.10;99.90;;;;;;483375;245;29383;-77
2021/09/26 02:15:54;;;;;;;5.77;5.17;;;15.10;99.90;;;;;;483391;245;29378;-77
2021/09/26 02:17:55;;;;;;;5.47;4.97;;;15.00;99.90;;;;;;483324;243;29871;-77
2021/09/26 02:20:02;;;;;;;6.20;5.60;;;15.00;99.90;;;;;;483372;245;28850;-77
2021/09/26 02:22:00;;;;;;;5.57;5.07;;;15.00;99.90;;;;;;483085;246;28970;-77
2021/09/26 02:24:02;;;;;;;8.20;5.20;;;15.00;99.90;;;;;;483409;245;28926;-77
2021/09/26 02:26:03;;;;;;;5.87;5.27;;;15.00;99.90;;;;;;483361;246;28837;-77
2021/09/26 02:28:04;;;;;;;5.23;4.73;;;15.00;99.90;;;;;;483376;245;29033;-77
2021/09/26 02:30:05;;;;;;;6.20;5.53;;;15.00;99.90;;;;;;483378;245;30165;-77
2021/09/26 02:32:07;;;;;;;5.83;5.10;;;15.10;99.90;;;;;;483381;245;29123;-77
2021/09/26 02:34:08;;;;;;;5.90;5.30;;;15.10;99.90;;;;;;483385;245;28918;-77
2021/09/26 02:36:09;;;;;;;6.20;5.33;;;15.10;99.90;;;;;;483398;245;28641;-77
2021/09/26 02:38:10;;;;;;;5.77;5.17;;;15.10;99.90;;;;;;483362;245;28958;-77
2021/09/26 02:40:12;;;;;;;6.47;5.20;;;15.10;99.90;;;;;;483371;246;28979;-78
2021/09/26 02:42:13;;;;;;;5.57;4.97;;;15.10;99.90;;;;;;483351;245;28527;-77
2021/09/26 02:44:14;;;;;;;5.20;4.70;;;15.10;99.90;;;;;;483387;245;28936;-76
2021/09/26 02:46:15;;;;;;;4.73;4.33;;;15.00;99.90;;;;;;483379;245;28632;-77
2021/09/26 02:48:17;;;;;;;5.30;4.80;;;15.00;99.90;;;;;;483338;245;28670;-77
2021/09/26 02:50:18;;;;;;;5.20;4.80;;;15.10;99.90;;;;;;483399;246;28998;-76
2021/09/26 02:52:19;;;;;;;4.97;4.40;;;15.20;99.90;;;;;;483403;245;28313;-77
2021/09/26 02:54:20;;;;;;;6.10;5.40;;;15.20;99.90;;;;;;483416;245;28942;-77
2021/09/26 02:56:22;;;;;;;4.93;4.53;;;15.20;99.90;;;;;;483361;245;29308;-77
2021/09/26 02:58:23;;;;;;;5.27;4.77;;;15.20;99.90;;;;;;483302;245;29361;-77
2021/09/26 03:00:24;;;;;;;5.07;4.33;;;15.30;99.90;;;;;;483384;245;28973;-77
2021/09/26 03:02:25;;;;;;;5.90;5.30;;;15.40;99.90;;;;;;483482;245;28539;-77
2021/09/26 03:04:27;;;;;;;5.93;5.33;;;15.40;99.90;;;;;;483421;245;28566;-77
2021/09/26 03:06:28;;;;;;;8.43;5.63;;;15.40;99.90;;;;;;483366;245;28528;-77
2021/09/26 03:08:29;;;;;;;6.60;5.87;;;15.40;99.90;;;;;;483408;245;28665;-76
2021/09/26 03:10:30;;;;;;;6.23;5.63;;;15.40;99.90;;;;;;483459;245;28903;-77
2021/09/26 03:12:32;;;;;;;6.20;5.60;;;15.30;99.90;;;;;;483448;245;28825;-77
2021/09/26 03:14:33;;;;;;;6.03;5.43;;;15.30;99.90;;;;;;483328;245;29015;-77
2021/09/26 03:16:34;;;;;;;5.77;5.27;;;15.20;99.90;;;;;;483373;245;29819;-77
2021/09/26 03:18:35;;;;;;;5.73;5.20;;;15.10;99.90;;;;;;483411;245;29352;-77
2021/09/26 03:20:37;;;;;;;6.87;5.37;;;15.10;99.90;;;;;;483348;245;28938;-77
2021/09/26 03:22:38;;;;;;;5.37;4.87;;;15.00;99.90;;;;;;483414;245;28979;-77
2021/09/26 03:24:39;;;;;;;6.23;4.73;;;15.00;99.90;;;;;;483355;245;28885;-77
2021/09/26 03:26:40;;;;;;;5.10;4.50;;;15.00;99.90;;;;;;483409;245;28855;-77
2021/09/26 03:28:42;;;;;;;5.53;5.03;;;15.00;99.90;;;;;;483408;245;28827;-78
2021/09/26 03:30:43;;;;;;;5.40;4.90;;;15.10;99.90;;;;;;483373;245;28927;-77
2021/09/26 03:32:44;;;;;;;5.70;5.20;;;15.10;99.90;;;;;;483388;245;28484;-77
2021/09/26 03:34:45;;;;;;;5.80;5.30;;;15.00;99.90;;;;;;483313;245;28930;-77
2021/09/26 03:36:47;;;;;;;8.40;5.93;;;15.00;99.90;;;;;;483371;246;28680;-77
2021/09/26 03:38:48;;;;;;;6.30;5.27;;;14.90;99.90;;;;;;483377;245;28862;-77
2021/09/26 03:40:49;;;;;;;5.87;5.27;;;14.90;99.90;;;;;;483350;246;28950;-77
2021/09/26 03:42:50;;;;;;;5.33;4.87;;;14.90;99.90;;;;;;483343;245;28904;-77
2021/09/26 03:44:52;;;;;;;9.30;5.43;;;14.90;99.90;;;;;;483362;245;28653;-77
2021/09/26 03:46:53;;;;;;;6.00;5.40;;;14.80;99.90;;;;;;483410;245;28582;-77
2021/09/26 03:48:54;;;;;;;6.20;5.30;;;14.80;99.90;;;;;;483394;245;28600;-77
2021/09/26 03:50:55;;;;;;;5.77;5.27;;;14.70;99.90;;;;;;483367;246;28447;-77
2021/09/26 03:52:57;;;;;;;5.90;5.30;;;14.70;99.90;;;;;;483393;245;28521;-77
2021/09/26 03:54:58;;;;;;;6.07;5.50;;;14.70;99.90;;;;;;483370;245;28668;-77
2021/09/26 03:56:59;;;;;;;5.70;5.20;;;14.70;99.90;;;;;;483405;245;28884;-78
2021/09/26 03:59:00;;;;;;;7.17;5.57;;;14.70;99.90;;;;;;483354;246;28467;-77
2021/09/26 04:01:02;;;;;;;5.50;5.00;;;14.70;99.90;;;;;;483341;245;28624;-76
2021/09/26 04:03:03;;;;;;;5.20;4.63;;;14.70;99.90;;;;;;483341;246;28583;-77
2021/09/26 04:05:04;;;;;;;5.60;5.10;;;14.60;99.90;;;;;;483409;245;29092;-77
2021/09/26 04:07:05;;;;;;;5.93;5.33;;;14.50;99.90;;;;;;483334;246;28546;-77
2021/09/26 04:09:07;;;;;;;6.20;5.60;;;14.50;99.90;;;;;;483333;245;29316;-76
2021/09/26 04:11:08;;;;;;;6.13;5.53;;;14.40;99.90;;;;;;483289;246;28459;-77
2021/09/26 04:13:09;;;;;;;5.77;5.27;;;14.40;99.90;;;;;;483371;245;28871;-77
2021/09/26 04:15:10;;;;;;;5.23;4.73;;;14.40;99.90;;;;;;483406;245;28440;-77
2021/09/26 04:17:12;;;;;;;6.07;4.80;;;14.40;99.90;;;;;;483384;245;28674;-77
2021/09/26 04:19:13;;;;;;;7.27;6.10;;;14.40;99.90;;;;;;483366;245;28416;-75
2021/09/26 04:21:14;;;;;;;5.60;5.00;;;14.40;99.90;;;;;;483358;245;28596;-77
2021/09/26 04:23:16;;;;;;;6.00;5.07;;;14.40;99.90;;;;;;483384;243;28547;-77
2021/09/26 04:25:17;;;;;;;6.03;5.20;;;14.40;99.90;;;;;;483372;246;28855;-76
2021/09/26 04:27:18;;;;;;;5.60;5.10;;;14.50;99.90;;;;;;483399;246;28987;-76
2021/09/26 04:29:19;;;;;;;6.30;5.70;;;14.50;99.90;;;;;;483365;245;28784;-77
2021/09/26 04:31:21;;;;;;;7.43;6.10;;;14.50;99.90;;;;;;483291;245;28851;-77
2021/09/26 04:33:22;;;;;;;5.60;5.10;;;14.50;99.90;;;;;;483310;245;29005;-77
2021/09/26 04:35:23;;;;;;;6.10;5.53;;;14.50;99.90;;;;;;483345;246;28298;-77
2021/09/26 04:37:24;;;;;;;6.27;5.60;;;14.50;99.90;;;;;;483318;246;28274;-77
2021/09/26 04:39:26;;;;;;;6.17;5.57;;;14.50;99.90;;;;;;483216;245;28409;-77
2021/09/26 04:41:27;;;;;;;7.43;5.60;;;14.50;99.90;;;;;;483299;245;28322;-77
2021/09/26 04:43:28;;;;;;;7.17;6.30;;;14.50;99.90;;;;;;483274;245;28354;-76
2021/09/26 04:45:29;;;;;;;7.37;5.50;;;14.50;99.90;;;;;;483266;245;28430;-77
2021/09/26 04:47:31;;;;;;;7.60;6.23;;;14.50;99.90;;;;;;483277;245;28488;-77
2021/09/26 04:49:32;;;;;;;7.33;5.60;;;14.50;99.90;;;;;;483301;246;28760;-77
2021/09/26 04:51:33;;;;;;;6.53;5.10;;;14.50;99.90;;;;;;483308;245;28771;-77
2021/09/26 04:53:34;;;;;;;5.67;5.13;;;14.50;99.90;;;;;;483291;245;28971;-77
2021/09/26 04:55:36;;;;;;;6.23;5.63;;;14.50;99.90;;;;;;483318;245;28575;-77
2021/09/26 04:57:37;;;;;;;6.03;5.43;;;14.50;99.90;;;;;;483291;245;28572;-77
2021/09/26 04:59:38;;;;;;;5.40;4.90;;;14.40;99.90;;;;;;483298;245;28444;-77
2021/09/26 05:01:39;;;;;;;5.50;5.00;;;14.40;99.90;;;;;;483341;245;28314;-77
2021/09/26 05:03:41;;;;;;;5.83;5.30;;;14.30;99.90;;;;;;483312;245;28593;-77
2021/09/26 05:05:42;;;;;;;5.37;4.77;;;14.30;99.90;;;;;;483314;245;28405;-77
2021/09/26 05:07:43;;;;;;;5.20;4.70;;;14.30;99.90;;;;;;483272;245;28250;-76
2021/09/26 05:09:44;;;;;;;6.33;5.73;;;14.20;99.90;;;;;;483266;245;28431;-77
2021/09/26 05:11:46;;;;;;;4.70;4.30;;;14.10;99.90;;;;;;483278;245;28512;-77
2021/09/26 05:13:47;;;;;;;5.50;5.00;;;14.10;99.90;;;;;;483234;245;28975;-77
2021/09/26 05:15:48;;;;;;;6.53;4.87;;;14.10;99.90;;;;;;483216;245;28732;-76
2021/09/26 05:17:49;;;;;;;5.10;4.60;;;14.00;99.90;;;;;;483211;246;28701;-77
2021/09/26 05:19:51;;;;;;;5.57;4.97;;;14.00;99.90;;;;;;483238;246;29124;-77
2021/09/26 05:21:52;;;;;;;6.20;5.60;;;14.00;99.90;;;;;;483249;245;28503;-77
2021/09/26 05:23:53;;;;;;;6.80;5.00;;;14.10;99.90;;;;;;483250;245;28352;-77
2021/09/26 05:25:54;;;;;;;6.10;5.50;;;14.10;99.90;;;;;;483220;246;28254;-77
2021/09/26 05:27:56;;;;;;;5.77;5.20;;;14.00;99.90;;;;;;483192;246;28270;-77
2021/09/26 05:29:57;;;;;;;4.70;4.30;;;14.00;99.90;;;;;;483198;245;28277;-76
2021/09/26 05:31:59;;;;;;;5.20;4.70;;;14.00;99.90;;;;;;483296;246;28217;-76
2021/09/26 05:33:59;;;;;;;5.27;4.77;;;14.10;99.90;;;;;;483175;245;28254;-76
2021/09/26 05:36:02;;;;;;;5.57;5.07;;;;;;;;;;483208;246;29035;-76
2021/09/26 05:38:03;;;;;;;5.03;4.53;;;14.00;99.90;;;;;;483259;245;26652;-76
2021/09/26 05:40:04;;;;;;;5.13;4.63;;;14.00;99.90;;;;;;483239;245;28341;-76
2021/09/26 05:42:06;;;;;;;5.10;4.70;;;14.00;99.90;;;;;;483203;245;28242;-76
2021/09/26 05:44:07;;;;;;;5.50;5.03;;;13.90;99.90;;;;;;483173;246;28193;-76
2021/09/26 05:46:08;;;;;;;5.07;4.57;;;14.00;99.90;;;;;;483182;245;28462;-75
2021/09/26 05:48:09;;;;;;;5.03;4.60;;;14.00;99.90;;;;;;483214;246;28332;-76
2021/09/26 05:50:11;;;;;;;5.50;5.00;;;14.00;99.90;;;;;;483157;245;28305;-75
2021/09/26 05:52:12;;;;;;;5.20;4.70;;;14.00;99.90;;;;;;483201;245;28855;-76
2021/09/26 05:54:13;;;;;;;4.93;4.37;;;14.10;99.90;;;;;;483203;245;28983;-76
2021/09/26 05:56:15;;;;;;;4.43;4.03;;;14.10;99.90;;;;;;483175;245;28750;-76
2021/09/26 05:58:16;;;;;;;6.80;5.07;;;14.10;99.90;;;;;;481901;243;28323;-76
2021/09/26 06:00:17;;;;;;;5.20;4.70;;;14.20;99.90;;;;;;483241;245;28179;-76
2021/09/26 06:02:24;;;;;;;5.63;5.13;;;14.30;99.90;;;;;;483222;245;28567;-76
2021/09/26 06:04:25;;;;;;;5.03;4.53;;;14.30;99.90;;;;;;483201;245;28235;-76
2021/09/26 06:06:27;;;;;;;4.50;4.10;;;14.30;99.90;;;;;;483160;245;28257;-76
2021/09/26 06:08:28;;;;;;;4.60;4.20;;;14.30;99.90;;;;;;483196;245;28325;-76
2021/09/26 06:10:29;;;;;;;4.90;4.50;;;14.40;99.90;;;;;;483185;246;28512;-76
2021/09/26 06:12:30;;;;;;;4.70;4.30;;;14.40;99.90;;;;;;483153;245;28344;-76
2021/09/26 06:14:31;;;;;;;5.10;4.60;;;14.40;99.90;;;;;;483167;245;28378;-76
2021/09/26 06:16:33;;;;;;;4.63;4.23;;;14.40;99.90;;;;;;483169;245;28367;-76
2021/09/26 06:18:34;;;;;;;4.97;4.57;;;14.40;99.90;;;;;;483198;246;28991;-75
2021/09/26 06:20:35;;;;;;;5.30;4.80;;;14.40;99.90;;;;;;483198;246;28952;-76
2021/09/26 06:22:36;;;;;;;5.13;4.50;;;14.50;99.90;;;;;;483167;245;28864;-77
2021/09/26 06:24:38;;;;;;;5.20;4.70;;;14.50;99.90;;;;;;483171;245;29133;-77
2021/09/26 06:26:39;;;;;;;4.60;4.20;;;14.60;99.90;;;;;;483144;245;28551;-77
2021/09/26 06:28:40;;;;;;;5.10;4.70;;;14.60;99.90;;;;;;483182;246;28419;-77
2021/09/26 06:30:41;;;;;;;4.73;4.40;;;14.70;99.90;;;;;;483182;245;28831;-77
2021/09/26 06:32:43;;;;;;;4.93;4.53;;;14.70;99.90;;;;;;483182;245;28433;-76
2021/09/26 06:34:44;;;;;;;5.47;5.00;;;14.80;99.90;;;;;;483155;245;28353;-76
2021/09/26 06:36:45;;;;;;;5.63;5.13;;;14.90;99.90;;;;;;483158;245;28945;-77
2021/09/26 06:38:46;;;;;;;6.03;5.27;;;15.00;99.90;;;;;;483161;246;28889;-77
2021/09/26 06:40:48;;;;;;;6.50;4.90;;;15.10;99.90;;;;;;483182;245;28832;-77
2021/09/26 06:42:49;;;;;;;6.00;5.00;;;15.20;99.90;;;;;;483154;245;29377;-77
2021/09/26 06:44:50;;;;;;;6.23;5.63;;;15.30;99.90;;;;;;483175;245;29267;-77
2021/09/26 06:46:51;;;;;;;5.80;4.80;;;15.50;99.90;;;;;;483205;245;29383;-77
2021/09/26 06:48:53;;;;;;;7.30;5.30;;;15.70;99.90;;;;;;483212;245;29407;-77
2021/09/26 06:50:54;;;;;;;5.63;4.90;;;15.80;99.90;;;;;;483201;245;28876;-77
2021/09/26 06:52:55;;;;;;;5.43;4.93;;;15.90;99.90;;;;;;483162;245;28874;-77
2021/09/26 06:54:56;;;;;;;5.43;4.83;;;16.00;99.90;;;;;;483169;245;28938;-77
2021/09/26 06:56:59;;;;;;;5.70;5.13;;;16.10;99.90;;;;;;483214;245;28907;-77
2021/09/26 06:58:59;;;;;;;4.60;4.10;;;16.20;99.90;;;;;;483141;246;28862;-77
2021/09/26 07:01:00;;;;;;;4.80;4.30;;;16.30;99.90;;;;;;483178;245;28851;-77
2021/09/26 07:03:01;;;;;;;4.80;4.40;;;16.30;99.90;;;;;;483157;246;28870;-77
2021/09/26 07:05:03;;;;;;;4.77;4.17;;;16.50;99.90;;;;;;483192;246;28869;-76
2021/09/26 07:07:04;;;;;;;4.93;4.53;;;16.50;99.90;;;;;;483186;245;28844;-78
2021/09/26 07:09:05;;;;;;;4.60;4.20;;;16.50;99.90;;;;;;483153;245;29461;-77
2021/09/26 07:11:06;;;;;;;6.13;4.43;;;16.40;99.90;;;;;;483150;245;29274;-77
2021/09/26 07:13:08;;;;;;;4.43;4.03;;;16.50;99.90;;;;;;483174;245;29448;-78
2021/09/26 07:15:09;;;;;;;4.20;3.80;;;16.40;99.90;;;;;;483167;245;28891;-77
2021/09/26 07:17:10;;;;;;;4.60;4.20;;;16.40;99.90;;;;;;483204;245;28840;-77
2021/09/26 07:19:12;;;;;;;8.60;4.40;;;16.40;99.90;;;;;;483161;245;28862;-77
2021/09/26 07:21:15;;;;;;;9.50;4.50;;;16.40;99.90;;;;;;483153;246;28837;-77
2021/09/26 07:23:14;;;;;;;4.23;3.83;;;16.40;99.90;;;;;;483031;244;28862;-77
2021/09/26 07:25:15;;;;;;;5.57;4.43;;;16.50;99.90;;;;;;483171;245;29299;-77
2021/09/26 07:27:17;;;;;;;5.27;4.50;;;16.50;99.90;;;;;;483181;245;28862;-77
2021/09/26 07:29:18;;;;;;;4.60;4.20;;;16.50;99.90;;;;;;483049;245;28973;-77
2021/09/26 07:31:19;;;;;;;5.20;4.70;;;16.50;99.90;;;;;;483125;246;28832;-77
2021/09/26 07:33:20;;;;;;;5.13;4.60;;;16.60;99.90;;;;;;483141;245;29422;-77
2021/09/26 07:35:21;;;;;;;4.80;4.40;;;16.70;99.90;;;;;;483136;245;29460;-77
2021/09/26 07:37:23;;;;;;;5.10;4.67;;;16.70;99.90;;;;;;483160;245;29347;-78
2021/09/26 07:39:24;;;;;;;5.10;4.60;;;16.80;99.90;;;;;;483119;246;28897;-77
2021/09/26 07:41:25;;;;;;;4.80;4.40;;;16.80;99.90;;;;;;483172;245;28942;-77
2021/09/26 07:43:26;;;;;;;4.87;4.37;;;16.90;99.90;;;;;;483213;245;28930;-77
2021/09/26 07:45:28;;;;;;;4.60;4.20;;;16.90;99.90;;;;;;483165;245;28934;-78
2021/09/26 07:47:29;;;;;;;5.17;4.70;;;16.90;99.90;;;;;;483173;246;28824;-77
2021/09/26 07:49:30;;;;;;;5.87;5.20;;;17.00;99.90;;;;;;483159;245;28861;-77
2021/09/26 07:51:31;;;;;;;4.83;4.33;;;16.90;99.90;;;;;;483182;245;28992;-77
2021/09/26 07:53:34;;;;;;;4.33;4.03;;;16.90;99.90;;;;;;483237;245;28851;-77
2021/09/26 07:55:34;;;;;;;5.30;4.70;;;17.00;99.90;;;;;;483121;245;28893;-77
2021/09/26 07:57:35;;;;;;;5.50;4.80;;;17.00;99.90;;;;;;479539;246;29324;-77
2021/09/26 07:59:36;;;;;;;5.40;4.60;;;17.00;99.90;;;;;;484199;245;29328;-77
2021/09/26 08:01:38;;;;;;;6.40;4.60;;;16.90;99.90;;;;;;484164;243;29454;-77
2021/09/26 08:03:40;;;;;;;4.80;4.40;;;17.00;99.90;;;;;;484211;245;28839;-77
2021/09/26 08:05:40;;;;;;;6.80;4.70;;;17.00;99.90;;;;;;484116;245;28778;-77
2021/09/26 08:07:41;;;;;;;7.10;4.43;;;17.00;99.90;;;;;;484170;245;28757;-77
2021/09/26 08:09:43;;;;;;;4.87;4.47;;;17.00;99.90;;;;;;484168;245;28792;-77
2021/09/26 08:11:44;;;;;;;4.60;4.20;;;17.00;99.90;;;;;;484176;245;28878;-77
2021/09/26 08:13:46;;;;;;;5.00;4.50;;;16.90;99.90;;;;;;484271;245;28897;-77
2021/09/26 08:15:46;;;;;;;5.90;5.30;;;16.90;99.90;;;;;;484132;245;28782;-77
2021/09/26 08:17:48;;;;;;;5.70;4.60;;;16.90;99.90;;;;;;484178;245;28783;-77
2021/09/26 08:19:49;;;;;;;5.80;5.20;;;16.80;99.90;;;;;;484151;245;28775;-76
2021/09/26 08:21:50;;;;;;;4.93;4.53;;;16.80;99.90;;;;;;484205;245;29274;-77
2021/09/26 08:23:51;;;;;;;4.37;3.97;;;16.80;99.90;;;;;;484213;243;29200;-76
2021/09/26 08:25:53;;;;;;;5.40;4.90;;;16.80;99.90;;;;;;484253;245;29261;-78
2021/09/26 08:27:54;;;;;;;5.73;4.90;;;16.90;99.90;;;;;;484175;245;28736;-77
2021/09/26 08:29:55;;;;;;;5.27;4.37;;;16.90;99.90;;;;;;484197;245;28816;-77
2021/09/26 08:31:56;;;;;;;5.13;4.63;;;17.00;99.90;;;;;;484211;245;28815;-77
2021/09/26 08:33:58;;;;;;;6.40;5.27;;;17.10;99.90;;;;;;484202;245;28756;-78
2021/09/26 08:35:59;;;;;;;5.23;4.70;;;17.20;99.90;;;;;;484224;245;28882;-78
2021/09/26 08:38:00;;;;;;;4.80;4.30;;;17.40;99.90;;;;;;484151;245;28769;-77
2021/09/26 08:40:01;;;;;;;5.60;5.10;;;17.50;99.90;;;;;;484227;245;28815;-77
2021/09/26 08:42:03;;;;;;;9.67;5.27;;;17.50;99.90;;;;;;484236;245;28786;-77
2021/09/26 08:44:05;;;;;;;7.30;4.97;;;17.70;99.90;;;;;;484264;245;28820;-78
2021/09/26 08:46:05;;;;;;;7.07;5.37;;;17.80;99.90;;;;;;484176;245;29262;-78
2021/09/26 08:48:06;;;;;;;5.73;5.00;;;17.90;99.90;;;;;;484208;245;29440;-77
2021/09/26 08:50:08;;;;;;;6.33;4.97;;;17.90;99.90;;;;;;484223;245;29285;-78
2021/09/26 08:52:09;;;;;;;5.57;4.40;;;17.90;99.90;;;;;;484210;243;28858;-78
2021/09/26 08:54:10;;;;;;;5.40;4.90;;;17.80;99.90;;;;;;484207;245;28807;-77
2021/09/26 08:56:12;;;;;;;5.47;4.97;;;17.70;99.90;;;;;;484209;245;28854;-77
2021/09/26 08:58:13;;;;;;;6.40;4.93;;;17.60;99.90;;;;;;484226;245;28865;-78
2021/09/26 09:00:15;;;;;;;10.17;5.13;;;17.60;99.90;;;;;;484216;245;28805;-76
2021/09/26 09:02:15;;;;;;;6.50;5.57;;;17.50;99.90;;;;;;484187;245;28885;-77
2021/09/26 09:04:16;;;;;;;8.37;5.00;;;17.50;99.90;;;;;;484174;245;28761;-77
2021/09/26 09:06:19;;;;;;;5.10;4.70;;;17.40;99.90;;;;;;484198;245;28832;-78
2021/09/26 09:08:19;;;;;;;5.37;4.87;;;17.30;99.90;;;;;;484209;245;28881;-77
2021/09/26 09:10:20;;;;;;;5.93;5.00;;;17.30;99.90;;;;;;484248;245;29196;-77
2021/09/26 09:12:21;;;;;;;7.37;5.00;;;17.30;99.90;;;;;;484212;245;29271;-76
2021/09/26 09:14:23;;;;;;;6.47;5.20;;;17.20;99.90;;;;;;484135;245;29220;-76
2021/09/26 09:16:24;;;;;;;7.47;5.50;;;17.20;99.90;;;;;;484135;245;28781;-76
2021/09/26 09:18:25;;;;;;;5.90;5.30;;;17.20;99.90;;;;;;484180;245;28883;-76
2021/09/26 09:20:27;;;;;;;6.13;5.27;;;17.20;99.90;;;;;;484193;245;28755;-76
2021/09/26 09:22:28;;;;;;;5.93;5.20;;;17.20;99.90;;;;;;484152;245;28784;-77
2021/09/26 09:24:29;;;;;;;6.63;5.23;;;17.20;99.90;;;;;;484141;245;28864;-76
2021/09/26 09:26:30;;;;;;;5.37;4.87;;;17.20;99.90;;;;;;484150;245;28785;-76
2021/09/26 09:28:38;;;;;;;5.33;4.90;;;17.10;99.90;;;;;;484199;245;28894;-77
2021/09/26 09:30:33;;;;;;;7.17;5.13;;;17.10;99.90;;;;;;483749;245;28834;-77
2021/09/26 09:32:34;;;;;;;7.27;5.33;;;17.00;99.90;;;;;;484191;245;28892;-77
2021/09/26 09:34:35;;;;;;;6.40;5.30;;;17.00;99.90;;;;;;484153;243;30038;-77
2021/09/26 09:36:36;;;;;;;5.73;5.20;;;16.90;99.90;;;;;;484179;245;29296;-76
2021/09/26 09:38:38;;;;;;;5.27;4.77;;;16.90;99.90;;;;;;484202;245;29328;-76
2021/09/26 09:40:39;;;;;;;5.23;4.73;;;16.90;99.90;;;;;;484182;245;28731;-75
2021/09/26 09:42:40;;;;;;;5.77;5.27;;;16.90;99.90;;;;;;484173;245;28841;-76
2021/09/26 09:44:44;;;;;;;5.43;4.67;;;16.90;99.90;;;;;;484186;245;28894;-76
2021/09/26 09:46:43;;;;;;;5.50;5.00;;;16.90;99.90;;;;;;484066;245;28753;-76
2021/09/26 09:48:45;;;;;;;6.00;5.30;;;16.90;99.90;;;;;;484179;245;28846;-77
2021/09/26 09:50:45;;;;;;;7.87;4.50;;;16.90;99.90;;;;;;484087;245;28824;-77
2021/09/26 09:52:53;;;;;;;5.30;4.80;;;16.90;99.90;;;;;;484153;245;28871;-77
2021/09/26 09:54:50;;;;;;;6.20;5.40;;;17.00;99.90;;;;;;483895;245;28787;-77
2021/09/26 09:56:52;;;;;;;5.70;5.20;;;17.00;99.90;;;;;;484171;243;28753;-76
2021/09/26 09:58:54;;;;;;;5.17;4.77;;;16.90;99.90;;;;;;484196;245;29184;-76
2021/09/26 10:00:54;;;;;;;4.57;4.17;;;16.80;99.90;;;;;;484110;245;29254;-76
2021/09/26 10:02:55;;;;;;;4.93;4.43;;;16.80;99.90;;;;;;484183;245;29287;-76
2021/09/26 10:04:57;;;;;;;4.70;4.30;;;16.80;99.90;;;;;;484237;243;28799;-76
2021/09/26 10:06:58;;;;;;;5.13;4.60;;;16.80;99.90;;;;;;484260;245;28875;-76
2021/09/26 10:08:59;;;;;;;4.93;4.50;;;16.80;99.90;;;;;;484275;245;28755;-76
2021/09/26 10:11:00;;;;;;;4.43;4.03;;;16.80;99.90;;;;;;484212;245;28791;-76
2021/09/26 10:13:02;;;;;;;4.63;4.23;;;16.80;99.90;;;;;;484202;245;28831;-76
2021/09/26 10:15:03;;;;;;;4.70;4.30;;;16.70;99.90;;;;;;484199;245;28886;-76
2021/09/26 10:17:04;;;;;;;6.10;4.40;;;16.70;99.90;;;;;;484172;245;28826;-77
2021/09/26 10:19:05;;;;;;;4.13;3.83;;;16.70;99.90;;;;;;484230;245;28886;-76
2021/09/26 10:21:07;;;;;;;6.03;5.50;;;16.70;99.90;;;;;;484230;245;28822;-76
2021/09/26 10:23:08;;;;;;;5.70;5.20;;;16.70;99.90;;;;;;484202;245;29235;-76
2021/09/26 10:25:09;;;;;;;6.43;5.83;;;16.70;99.90;;;;;;484182;245;29274;-76
2021/09/26 10:27:11;;;;;;;6.67;5.40;;;16.80;99.90;;;;;;484178;245;29421;-77
2021/09/26 10:29:12;;;;;;;7.17;5.73;;;16.80;99.90;;;;;;484474;245;28837;-76
2021/09/26 10:31:13;;;;;;;7.60;6.80;;;16.90;99.90;;;;;;484171;245;28856;-77